createdAt,value
2018-03-18T00:01:53.448Z,14.48
2018-03-18T00:04:22.099Z,14.57
2018-03-18T00:06:50.724Z,14.61
2018-03-18T00:09:19.616Z,14.60
2018-03-18T00:11:48.187Z,14.65
2018-03-18T00:14:16.857Z,14.75
2018-03-18T00:16:45.441Z,14.62
2018-03-18T00:19:14.096Z,14.67
2018-03-18T00:21:42.723Z,14.62
2018-03-18T00:24:11.373Z,13.67
2018-03-18T00:26:39.967Z,14.56
2018-03-18T00:29:08.585Z,14.57
2018-03-18T00:31:37.147Z,14.37
2018-03-18T00:34:05.783Z,14.26
2018-03-18T00:36:34.470Z,14.28
2018-03-18T00:39:03.167Z,14.26
2018-03-18T00:41:31.750Z,14.33
2018-03-18T00:44:00.348Z,14.32
2018-03-18T00:46:28.944Z,14.33
2018-03-18T00:48:57.588Z,14.27
2018-03-18T00:51:38.027Z,14.27
2018-03-18T00:54:06.735Z,14.08
2018-03-18T00:56:35.350Z,14.22
2018-03-18T00:59:04.186Z,14.27
2018-03-18T01:01:32.820Z,14.17
2018-03-18T01:04:01.440Z,14.08
2018-03-18T01:06:30.459Z,14.03
2018-03-18T01:08:59.062Z,13.96
2018-03-18T01:11:27.802Z,13.94
2018-03-18T01:13:56.437Z,14.11
2018-03-18T01:16:25.051Z,14.05
2018-03-18T01:18:53.687Z,13.89
2018-03-18T01:21:22.395Z,13.91
2018-03-18T01:23:50.959Z,13.83
2018-03-18T01:26:19.641Z,13.79
2018-03-18T01:28:48.197Z,13.70
2018-03-18T01:31:16.972Z,13.63
2018-03-18T01:33:45.563Z,13.53
2018-03-18T01:36:14.177Z,13.60
2018-03-18T01:38:44.512Z,13.47
2018-03-18T01:41:13.164Z,13.52
2018-03-18T01:43:41.785Z,13.44
2018-03-18T01:46:10.709Z,13.41
2018-03-18T01:48:39.263Z,13.27
2018-03-18T01:51:07.873Z,13.21
2018-03-18T01:53:36.468Z,13.18
2018-03-18T01:56:05.111Z,13.16
2018-03-18T01:58:33.721Z,13.20
2018-03-18T02:01:02.294Z,13.19
2018-03-18T02:03:30.961Z,13.07
2018-03-18T02:05:59.535Z,13.12
2018-03-18T02:08:28.156Z,13.03
2018-03-18T02:10:56.820Z,13.03
2018-03-18T02:13:25.438Z,13.06
2018-03-18T02:15:54.270Z,13.08
2018-03-18T02:18:23.794Z,13.10
2018-03-18T02:20:52.388Z,13.07
2018-03-18T02:23:21.046Z,13.12
2018-03-18T02:25:49.854Z,12.99
2018-03-18T02:28:18.906Z,13.10
2018-03-18T02:30:47.714Z,13.12
2018-03-18T02:33:16.629Z,13.09
2018-03-18T02:35:45.271Z,13.05
2018-03-18T02:38:14.069Z,12.98
2018-03-18T02:40:42.891Z,13.05
2018-03-18T02:43:11.920Z,12.15
2018-03-18T02:45:40.835Z,13.21
2018-03-18T02:48:09.575Z,13.25
2018-03-18T02:50:38.382Z,13.25
2018-03-18T02:53:07.208Z,13.33
2018-03-18T02:55:36.028Z,13.25
2018-03-18T02:58:04.918Z,13.41
2018-03-18T03:00:33.655Z,13.51
2018-03-18T03:03:02.494Z,13.46
2018-03-18T03:05:31.137Z,13.27
2018-03-18T03:07:59.934Z,13.36
2018-03-18T03:10:28.826Z,13.37
2018-03-18T03:12:57.518Z,13.39
2018-03-18T03:15:26.200Z,13.34
2018-03-18T03:17:55.632Z,13.43
2018-03-18T03:20:24.345Z,13.49
2018-03-18T03:22:53.270Z,13.49
2018-03-18T03:25:22.092Z,13.51
2018-03-18T03:27:50.910Z,13.49
2018-03-18T03:30:19.561Z,13.43
2018-03-18T03:32:48.379Z,13.43
2018-03-18T03:35:17.080Z,13.38
2018-03-18T03:37:46.003Z,13.49
2018-03-18T03:40:14.825Z,13.47
2018-03-18T03:42:43.748Z,13.45
2018-03-18T03:45:12.573Z,13.39
2018-03-18T03:47:41.492Z,13.38
2018-03-18T03:50:10.215Z,13.31
2018-03-18T03:52:39.040Z,13.29
2018-03-18T03:55:08.889Z,13.24
2018-03-18T03:57:37.709Z,13.17
2018-03-18T04:00:06.609Z,13.11
2018-03-18T04:02:35.429Z,13.03
2018-03-18T04:05:04.253Z,12.83
2018-03-18T04:07:33.174Z,12.84
2018-03-18T04:10:01.897Z,12.75
2018-03-18T04:12:30.793Z,12.68
2018-03-18T04:14:59.640Z,12.61
2018-03-18T04:17:28.454Z,12.60
2018-03-18T04:19:57.285Z,12.61
2018-03-18T04:22:26.130Z,12.61
2018-03-18T04:24:54.906Z,12.63
2018-03-18T04:27:23.850Z,12.65
2018-03-18T04:29:53.376Z,12.59
2018-03-18T04:32:22.100Z,12.57
2018-03-18T04:34:50.921Z,12.60
2018-03-18T04:37:19.843Z,12.46
2018-03-18T04:39:48.751Z,12.52
2018-03-18T04:42:17.687Z,12.43
2018-03-18T04:44:46.686Z,12.47
2018-03-18T04:47:15.551Z,12.44
2018-03-18T04:49:44.471Z,12.35
2018-03-18T04:52:13.191Z,12.29
2018-03-18T04:54:42.000Z,12.25
2018-03-18T04:57:10.723Z,12.21
2018-03-18T04:59:39.543Z,12.20
2018-03-18T05:02:08.368Z,12.14
2018-03-18T05:04:37.979Z,12.12
2018-03-18T05:07:07.311Z,12.14
2018-03-18T05:09:36.103Z,12.21
2018-03-18T05:12:04.863Z,12.22
2018-03-18T05:14:33.687Z,12.35
2018-03-18T05:17:03.005Z,12.28
2018-03-18T05:19:32.332Z,12.30
2018-03-18T05:22:01.178Z,12.36
2018-03-18T05:24:30.006Z,12.37
2018-03-18T05:26:58.901Z,12.33
2018-03-18T05:29:27.822Z,12.34
2018-03-18T05:31:56.769Z,12.30
2018-03-18T05:34:25.493Z,12.39
2018-03-18T05:36:54.385Z,12.47
2018-03-18T05:39:23.210Z,12.57
2018-03-18T05:41:51.946Z,12.37
2018-03-18T05:44:20.771Z,12.28
2018-03-18T05:46:49.589Z,12.29
2018-03-18T05:49:18.571Z,12.25
2018-03-18T05:51:47.419Z,12.28
2018-03-18T05:54:16.244Z,12.28
2018-03-18T05:56:44.970Z,12.17
2018-03-18T05:59:13.687Z,12.32
2018-03-18T06:01:42.608Z,12.40
2018-03-18T06:04:11.550Z,12.24
2018-03-18T06:06:40.456Z,12.16
2018-03-18T06:09:10.054Z,12.17
2018-03-18T06:11:39.002Z,12.28
2018-03-18T06:14:07.889Z,12.34
2018-03-18T06:16:36.750Z,12.43
2018-03-18T06:19:05.443Z,12.39
2018-03-18T06:21:35.972Z,12.46
2018-03-18T06:24:04.803Z,12.54
2018-03-18T06:26:33.719Z,12.64
2018-03-18T06:29:02.563Z,12.71
2018-03-18T06:31:31.540Z,12.65
2018-03-18T06:34:00.495Z,12.76
2018-03-18T06:36:29.211Z,12.86
2018-03-18T06:38:58.055Z,13.01
2018-03-18T06:41:27.480Z,13.10
2018-03-18T06:43:56.404Z,13.01
2018-03-18T06:46:25.075Z,13.05
2018-03-18T06:48:53.842Z,13.20
2018-03-18T06:51:22.687Z,13.22
2018-03-18T06:53:52.189Z,13.32
2018-03-18T06:56:21.075Z,13.27
2018-03-18T06:58:49.834Z,13.31
2018-03-18T07:01:18.970Z,13.35
2018-03-18T07:03:47.781Z,13.28
2018-03-18T07:06:16.503Z,13.26
2018-03-18T07:08:45.228Z,13.36
2018-03-18T07:11:14.053Z,13.35
2018-03-18T07:13:42.967Z,13.34
2018-03-18T07:16:11.891Z,13.50
2018-03-18T07:18:40.718Z,13.61
2018-03-18T07:21:09.637Z,13.66
2018-03-18T07:23:38.307Z,13.69
2018-03-18T07:26:07.083Z,13.68
2018-03-18T07:28:35.930Z,13.65
2018-03-18T07:31:05.148Z,13.50
2018-03-18T07:33:33.947Z,13.49
2018-03-18T07:36:02.690Z,13.52
2018-03-18T07:38:31.500Z,13.49
2018-03-18T07:41:00.419Z,13.54
2018-03-18T07:43:29.178Z,13.59
2018-03-18T07:45:58.063Z,13.53
2018-03-18T07:48:26.882Z,13.62
2018-03-18T07:50:55.648Z,13.65
2018-03-18T07:53:24.526Z,13.66
2018-03-18T07:55:53.223Z,13.94
2018-03-18T07:58:22.097Z,13.98
2018-03-18T08:00:50.892Z,13.83
2018-03-18T08:03:20.505Z,13.64
2018-03-18T08:05:49.443Z,13.69
2018-03-18T08:08:18.366Z,13.64
2018-03-18T08:10:47.811Z,13.69
2018-03-18T08:13:16.608Z,13.81
2018-03-18T08:15:45.432Z,13.77
2018-03-18T08:18:14.172Z,13.81
2018-03-18T08:20:42.874Z,13.87
2018-03-18T08:23:11.698Z,13.85
2018-03-18T08:25:40.820Z,14.00
2018-03-18T08:28:09.542Z,14.08
2018-03-18T08:30:38.434Z,14.49
2018-03-18T08:33:07.131Z,14.74
2018-03-18T08:35:36.812Z,14.93
2018-03-18T08:38:05.532Z,15.18
2018-03-18T08:40:35.360Z,15.31
2018-03-18T08:43:04.080Z,15.43
2018-03-18T08:45:32.804Z,15.67
2018-03-18T08:48:02.329Z,16.10
2018-03-18T08:50:31.051Z,16.12
2018-03-18T08:52:59.857Z,16.00
2018-03-18T08:55:28.698Z,15.90
2018-03-18T08:57:57.618Z,16.20
2018-03-18T09:00:26.442Z,16.23
2018-03-18T09:02:56.365Z,16.27
2018-03-18T09:05:25.116Z,16.41
2018-03-18T09:07:54.012Z,16.56
2018-03-18T09:10:22.768Z,16.74
2018-03-18T09:12:51.560Z,16.73
2018-03-18T09:15:20.275Z,17.03
2018-03-18T09:17:49.219Z,17.07
2018-03-18T09:20:17.879Z,17.00
2018-03-18T09:22:46.565Z,16.44
2018-03-18T09:25:15.383Z,16.66
2018-03-18T09:27:44.069Z,16.72
2018-03-18T09:30:14.147Z,16.99
2018-03-18T09:32:43.035Z,17.34
2018-03-18T09:35:12.429Z,17.45
2018-03-18T09:37:41.374Z,17.75
2018-03-18T09:40:11.128Z,17.86
2018-03-18T09:42:39.934Z,18.01
2018-03-18T09:45:09.683Z,18.68
2018-03-18T09:47:38.383Z,18.46
2018-03-18T09:50:07.173Z,18.47
2018-03-18T09:52:36.023Z,18.33
2018-03-18T09:55:04.832Z,18.40
2018-03-18T09:57:33.599Z,18.23
2018-03-18T10:00:03.221Z,18.19
2018-03-18T10:02:33.272Z,18.04
2018-03-18T10:05:02.140Z,17.36
2018-03-18T10:07:30.978Z,18.29
2018-03-18T10:09:59.789Z,18.68
2018-03-18T10:12:28.770Z,19.59
2018-03-18T10:14:58.512Z,20.94
2018-03-18T10:17:27.255Z,22.11
2018-03-18T10:19:56.098Z,21.52
2018-03-18T10:22:24.774Z,21.73
2018-03-18T10:24:53.621Z,22.60
2018-03-18T10:27:22.341Z,22.49
2018-03-18T10:29:51.072Z,22.94
2018-03-18T10:32:20.001Z,23.66
2018-03-18T10:34:51.217Z,23.73
2018-03-18T10:37:20.058Z,22.27
2018-03-18T10:39:48.865Z,22.05
2018-03-18T10:42:17.509Z,21.85
2018-03-18T10:44:46.304Z,21.84
2018-03-18T10:47:15.851Z,21.77
2018-03-18T10:49:44.551Z,22.35
2018-03-18T10:52:14.281Z,23.09
2018-03-18T10:54:42.984Z,23.07
2018-03-18T10:57:12.401Z,22.98
2018-03-18T10:59:41.070Z,22.85
2018-03-18T11:02:21.715Z,22.89
2018-03-18T11:04:50.633Z,22.91
2018-03-18T11:07:19.455Z,21.85
2018-03-18T11:09:48.360Z,22.73
2018-03-18T11:12:17.298Z,23.47
2018-03-18T11:14:46.222Z,24.36
2018-03-18T11:17:15.045Z,23.98
2018-03-18T11:19:43.865Z,22.95
2018-03-18T11:22:12.687Z,23.22
2018-03-18T11:24:41.610Z,23.45
2018-03-18T11:27:10.532Z,23.80
2018-03-18T11:29:39.257Z,23.20
2018-03-18T11:32:08.180Z,23.97
2018-03-18T11:34:37.080Z,24.24
2018-03-18T11:37:05.922Z,23.88
2018-03-18T11:39:34.764Z,23.51
2018-03-18T11:42:03.670Z,23.83
2018-03-18T11:44:32.593Z,22.12
2018-03-18T11:47:01.422Z,22.98
2018-03-18T11:49:31.051Z,23.50
2018-03-18T11:51:59.760Z,23.62
2018-03-18T11:54:28.684Z,23.39
2018-03-18T11:56:57.618Z,23.69
2018-03-18T11:59:26.327Z,23.71
2018-03-18T12:01:55.162Z,24.50
2018-03-18T12:04:24.071Z,23.78
2018-03-18T12:06:52.893Z,22.36
2018-03-18T12:09:21.920Z,22.72
2018-03-18T12:11:50.637Z,23.27
2018-03-18T12:14:19.562Z,23.79
2018-03-18T12:16:48.243Z,22.08
2018-03-18T12:19:17.203Z,21.13
2018-03-18T12:21:45.931Z,20.80
2018-03-18T12:24:14.750Z,20.59
2018-03-18T12:26:43.637Z,20.35
2018-03-18T12:29:12.396Z,20.33
2018-03-18T12:31:41.566Z,20.26
2018-03-18T12:34:10.413Z,20.53
2018-03-18T12:36:39.356Z,20.89
2018-03-18T12:39:08.531Z,20.60
2018-03-18T12:41:37.207Z,20.33
2018-03-18T12:44:06.132Z,20.52
2018-03-18T12:46:35.053Z,20.40
2018-03-18T12:49:03.875Z,20.57
2018-03-18T12:51:32.726Z,21.07
2018-03-18T12:54:01.624Z,20.96
2018-03-18T12:56:30.343Z,20.80
2018-03-18T12:58:59.064Z,20.77
2018-03-18T13:01:27.953Z,20.60
2018-03-18T13:03:56.707Z,20.32
2018-03-18T13:06:25.510Z,20.01
2018-03-18T13:08:54.177Z,20.51
2018-03-18T13:11:22.884Z,20.55
2018-03-18T13:13:51.611Z,20.33
2018-03-18T13:16:20.354Z,20.13
2018-03-18T13:18:49.151Z,20.02
2018-03-18T13:21:18.074Z,19.78
2018-03-18T13:23:46.916Z,19.55
2018-03-18T13:26:15.719Z,19.57
2018-03-18T13:28:44.639Z,19.65
2018-03-18T13:31:13.430Z,19.75
2018-03-18T13:33:42.284Z,19.65
2018-03-18T13:36:11.186Z,19.77
2018-03-18T13:38:39.829Z,19.74
2018-03-18T13:41:08.656Z,19.40
2018-03-18T13:43:37.693Z,19.59
2018-03-18T13:46:06.419Z,19.68
2018-03-18T13:48:35.444Z,19.62
2018-03-18T13:51:05.057Z,19.75
2018-03-18T13:53:33.866Z,19.99
2018-03-18T13:56:02.769Z,19.99
2018-03-18T13:58:31.413Z,20.10
2018-03-18T14:01:00.432Z,20.24
2018-03-18T14:03:30.257Z,19.90
2018-03-18T14:05:58.961Z,19.80
2018-03-18T14:08:27.804Z,19.76
2018-03-18T14:10:56.595Z,19.81
2018-03-18T14:13:26.049Z,19.91
2018-03-18T14:15:54.886Z,19.93
2018-03-18T14:18:23.773Z,19.82
2018-03-18T14:20:52.919Z,19.95
2018-03-18T14:23:21.542Z,19.81
2018-03-18T14:25:50.382Z,19.83
2018-03-18T14:28:19.090Z,19.79
2018-03-18T14:30:47.631Z,19.71
2018-03-18T14:33:16.325Z,19.77
2018-03-18T14:35:44.865Z,19.56
2018-03-18T14:38:13.409Z,19.30
2018-03-18T14:40:41.951Z,19.13
2018-03-18T14:43:10.549Z,19.07
2018-03-18T14:45:39.116Z,18.89
2018-03-18T14:48:07.677Z,19.07
2018-03-18T14:50:36.915Z,18.99
2018-03-18T14:53:05.599Z,18.90
2018-03-18T14:55:34.133Z,18.82
2018-03-18T14:58:02.831Z,18.73
2018-03-18T15:00:31.437Z,18.63
2018-03-18T15:03:00.087Z,18.57
2018-03-18T15:05:28.867Z,18.45
2018-03-18T15:07:57.411Z,18.32
2018-03-18T15:10:26.007Z,18.28
2018-03-18T15:12:54.629Z,18.18
2018-03-18T15:15:23.175Z,18.07
2018-03-18T15:17:51.814Z,18.04
2018-03-18T15:20:20.378Z,18.15
2018-03-18T15:22:49.109Z,18.24
2018-03-18T15:25:17.704Z,18.30
2018-03-18T15:27:46.295Z,18.25
2018-03-18T15:30:14.801Z,18.23
2018-03-18T15:32:43.443Z,18.20
2018-03-18T15:35:12.175Z,18.28
2018-03-18T15:37:40.748Z,18.14
2018-03-18T15:40:09.311Z,18.14
2018-03-18T15:42:37.929Z,18.11
2018-03-18T15:45:06.504Z,18.03
2018-03-18T15:47:35.051Z,17.98
2018-03-18T15:50:04.329Z,18.10
2018-03-18T15:52:33.336Z,18.02
2018-03-18T15:55:01.945Z,18.13
2018-03-18T15:57:30.473Z,18.37
2018-03-18T15:59:59.060Z,18.25
2018-03-18T16:02:27.611Z,18.10
2018-03-18T16:04:56.221Z,17.74
2018-03-18T16:07:24.750Z,17.30
2018-03-18T16:09:53.934Z,17.13
2018-03-18T16:12:23.202Z,16.95
2018-03-18T16:14:51.809Z,16.84
2018-03-18T16:17:20.575Z,16.78
2018-03-18T16:19:49.141Z,16.95
2018-03-18T16:22:17.759Z,16.83
2018-03-18T16:24:46.321Z,16.68
2018-03-18T16:27:14.922Z,16.48
2018-03-18T16:29:55.112Z,16.26
2018-03-18T16:32:23.649Z,16.01
2018-03-18T16:34:53.301Z,15.86
2018-03-18T16:37:21.924Z,15.73
2018-03-18T16:39:50.577Z,15.62
2018-03-18T16:42:19.141Z,15.60
2018-03-18T16:44:47.686Z,15.64
2018-03-18T16:47:16.346Z,15.32
2018-03-18T16:49:44.942Z,15.30
2018-03-18T16:52:13.582Z,15.14
2018-03-18T16:54:42.845Z,15.10
2018-03-18T16:57:11.463Z,15.13
2018-03-18T16:59:40.003Z,15.10
2018-03-18T17:02:08.571Z,15.18
2018-03-18T17:04:37.109Z,15.07
2018-03-18T17:07:05.818Z,15.15
2018-03-18T17:09:34.428Z,15.14
2018-03-18T17:12:02.993Z,15.15
2018-03-18T17:14:31.577Z,15.26
2018-03-18T17:17:00.198Z,15.23
2018-03-18T17:19:28.796Z,15.16
2018-03-18T17:21:57.978Z,15.05
2018-03-18T17:24:26.531Z,14.90
2018-03-18T17:26:55.287Z,14.87
2018-03-18T17:29:23.845Z,14.72
2018-03-18T17:31:52.688Z,14.74
2018-03-18T17:34:21.291Z,14.80
2018-03-18T17:36:49.833Z,14.81
2018-03-18T17:39:18.596Z,14.75
2018-03-18T17:41:47.244Z,14.84
2018-03-18T17:44:27.579Z,14.80
2018-03-18T17:47:08.602Z,14.74
2018-03-18T17:49:49.153Z,14.72
2018-03-18T17:52:29.329Z,14.67
2018-03-18T17:55:10.141Z,14.68
2018-03-18T17:57:39.800Z,14.44
2018-03-18T18:00:08.385Z,14.38
2018-03-18T18:02:37.052Z,14.33
2018-03-18T18:05:05.654Z,14.39
2018-03-18T18:07:34.244Z,14.43
2018-03-18T18:10:02.823Z,14.57
2018-03-18T18:12:31.427Z,14.43
2018-03-18T18:14:59.986Z,14.58
2018-03-18T18:17:28.637Z,14.62
2018-03-18T18:19:57.250Z,14.62
2018-03-18T18:22:26.022Z,14.55
2018-03-18T18:24:55.476Z,14.35
2018-03-18T18:27:24.006Z,14.12
2018-03-18T18:29:53.332Z,14.06
2018-03-18T18:32:21.933Z,14.06
2018-03-18T18:34:50.484Z,13.92
2018-03-18T18:37:19.079Z,13.72
2018-03-18T18:39:47.647Z,13.59
2018-03-18T18:42:16.278Z,13.41
2018-03-18T18:44:44.898Z,13.41
2018-03-18T18:47:13.506Z,13.60
2018-03-18T18:49:42.170Z,13.59
2018-03-18T18:52:10.835Z,13.53
2018-03-18T18:54:40.069Z,13.41
2018-03-18T18:57:08.697Z,13.15
2018-03-18T18:59:37.287Z,13.11
2018-03-18T19:02:05.942Z,13.03
2018-03-18T19:04:34.505Z,12.96
2018-03-18T19:07:03.183Z,12.91
2018-03-18T19:09:31.750Z,12.89
2018-03-18T19:12:00.316Z,12.81
2018-03-18T19:14:28.934Z,12.69
2018-03-18T19:16:57.489Z,12.60
2018-03-18T19:19:26.168Z,12.65
2018-03-18T19:21:54.920Z,12.59
2018-03-18T19:24:23.621Z,12.57
2018-03-18T19:26:52.175Z,12.49
2018-03-18T19:29:20.942Z,12.54
2018-03-18T19:31:49.475Z,12.51
2018-03-18T19:34:18.046Z,12.59
2018-03-18T19:36:46.637Z,12.50
2018-03-18T19:39:15.324Z,12.49
2018-03-18T19:41:43.982Z,12.42
2018-03-18T19:44:12.568Z,12.47
2018-03-18T19:46:41.238Z,12.46
2018-03-18T19:49:09.848Z,12.40
2018-03-18T19:51:38.516Z,12.33
2018-03-18T19:54:07.055Z,12.31
2018-03-18T19:56:35.675Z,12.04
2018-03-18T19:59:04.275Z,12.28
2018-03-18T20:01:32.822Z,12.33
2018-03-18T20:04:03.152Z,12.26
2018-03-18T20:06:31.790Z,12.16
2018-03-18T20:09:00.323Z,12.17
2018-03-18T20:11:29.079Z,12.12
2018-03-18T20:13:57.654Z,12.10
2018-03-18T20:16:26.253Z,12.21
2018-03-18T20:18:54.849Z,12.18
2018-03-18T20:21:23.424Z,12.16
2018-03-18T20:23:52.008Z,12.11
2018-03-18T20:26:20.642Z,12.15
2018-03-18T20:28:49.198Z,12.08
2018-03-18T20:31:17.908Z,11.99
2018-03-18T20:33:46.510Z,12.00
2018-03-18T20:36:15.047Z,12.01
2018-03-18T20:38:43.629Z,12.04
2018-03-18T20:41:12.193Z,12.03
2018-03-18T20:43:40.779Z,12.02
2018-03-18T20:46:09.443Z,12.09
2018-03-18T20:48:38.043Z,12.09
2018-03-18T20:51:06.631Z,12.03
2018-03-18T20:53:35.220Z,12.10
2018-03-18T20:56:03.925Z,12.02
2018-03-18T20:58:32.520Z,11.98
2018-03-18T21:01:01.061Z,11.99
2018-03-18T21:03:29.639Z,11.94
2018-03-18T21:05:58.408Z,11.81
2018-03-18T21:08:27.904Z,11.81
2018-03-18T21:10:56.517Z,11.82
2018-03-18T21:13:25.087Z,11.72
2018-03-18T21:15:53.666Z,11.85
2018-03-18T21:18:22.319Z,11.89
2018-03-18T21:20:50.909Z,11.85
2018-03-18T21:23:19.509Z,11.85
2018-03-18T21:25:48.112Z,11.88
2018-03-18T21:28:16.715Z,11.92
2018-03-18T21:30:45.413Z,11.94
2018-03-18T21:33:14.148Z,11.87
2018-03-18T21:35:42.782Z,11.84
2018-03-18T21:38:11.443Z,11.82
2018-03-18T21:40:40.033Z,11.75
2018-03-18T21:43:08.643Z,11.78
2018-03-18T21:45:38.100Z,11.58
2018-03-18T21:48:06.883Z,11.57
2018-03-18T21:50:35.486Z,11.51
2018-03-18T21:53:04.330Z,11.32
2018-03-18T21:55:32.946Z,11.39
2018-03-18T21:58:01.562Z,11.12
2018-03-18T22:00:30.238Z,11.01
2018-03-18T22:02:58.853Z,11.03
2018-03-18T22:05:28.152Z,11.00
2018-03-18T22:07:56.859Z,11.04
2018-03-18T22:10:25.562Z,10.94
2018-03-18T22:12:54.251Z,10.79
2018-03-18T22:15:22.921Z,10.97
2018-03-18T22:17:52.148Z,11.03
2018-03-18T22:20:20.734Z,11.00
2018-03-18T22:22:49.333Z,10.98
2018-03-18T22:25:17.976Z,10.93
2018-03-18T22:27:46.528Z,10.94
2018-03-18T22:30:15.095Z,10.86
2018-03-18T22:32:43.773Z,10.94
2018-03-18T22:35:12.334Z,10.96
2018-03-18T22:37:41.033Z,11.02
2018-03-18T22:40:09.598Z,11.09
2018-03-18T22:42:38.192Z,11.14
2018-03-18T22:45:06.795Z,11.07
2018-03-18T22:47:35.375Z,11.07
2018-03-18T22:50:04.000Z,11.11
2018-03-18T22:52:32.648Z,11.17
2018-03-18T22:55:01.174Z,11.03
2018-03-18T22:57:29.773Z,11.00
2018-03-18T22:59:58.411Z,10.80
2018-03-18T23:02:27.150Z,10.59
2018-03-18T23:04:55.705Z,10.41
2018-03-18T23:07:24.231Z,10.26
2018-03-18T23:09:52.874Z,10.14
2018-03-18T23:12:21.562Z,10.06
2018-03-18T23:14:50.154Z,9.99
2018-03-18T23:17:18.761Z,9.87
2018-03-18T23:19:47.396Z,9.83
2018-03-18T23:22:16.587Z,9.91
2018-03-18T23:24:45.180Z,9.95
2018-03-18T23:27:13.952Z,10.13
2018-03-18T23:29:42.536Z,10.14
2018-03-18T23:32:11.256Z,10.04
2018-03-18T23:34:39.781Z,10.22
2018-03-18T23:37:09.157Z,10.18
2018-03-18T23:39:37.697Z,10.15
2018-03-18T23:42:06.306Z,9.94
2018-03-18T23:44:34.928Z,9.94
2018-03-18T23:47:03.633Z,9.90
2018-03-18T23:49:32.225Z,9.79
2018-03-18T23:52:00.746Z,9.76
2018-03-18T23:54:29.579Z,9.78
2018-03-18T23:56:58.218Z,9.67
2018-03-18T23:59:26.754Z,9.60
